createdAt,value
2019-06-26T00:01:00.348Z,96294.58
2019-06-26T00:03:28.999Z,96293.42
2019-06-26T00:05:57.536Z,96292.61
2019-06-26T00:08:26.014Z,96289.67
2019-06-26T00:10:54.906Z,96291.45
2019-06-26T00:13:26.594Z,96285.50
2019-06-26T00:15:53.760Z,96283.84
2019-06-26T00:18:22.295Z,96289.97
2019-06-26T00:20:50.979Z,96288.78
2019-06-26T00:23:19.490Z,96284.92
2019-06-26T00:25:48.153Z,96281.17
2019-06-26T00:28:16.824Z,96283.80
2019-06-26T00:30:45.438Z,96280.39
2019-06-26T00:33:13.961Z,96275.31
2019-06-26T00:35:42.498Z,96271.91
2019-06-26T00:38:11.110Z,96278.84
2019-06-26T00:40:39.630Z,96281.89
2019-06-26T00:43:08.275Z,96278.59
2019-06-26T00:45:36.778Z,96275.22
2019-06-26T00:48:05.428Z,96271.81
2019-06-26T00:50:33.971Z,96270.59
2019-06-26T00:53:02.622Z,96271.11
2019-06-26T00:55:31.281Z,96267.70
2019-06-26T00:57:59.879Z,96264.79
2019-06-26T01:00:31.423Z,96260.09
2019-06-26T01:02:59.970Z,96258.45
2019-06-26T01:05:28.590Z,96260.22
2019-06-26T01:07:57.144Z,96257.70
2019-06-26T01:10:25.689Z,96252.94
2019-06-26T01:12:54.607Z,96255.98
2019-06-26T01:15:23.246Z,96252.16
2019-06-26T01:17:52.187Z,96248.80
2019-06-26T01:20:20.796Z,96254.06
2019-06-26T01:22:49.346Z,96248.92
2019-06-26T01:25:17.881Z,96246.84
2019-06-26T01:27:46.428Z,96248.63
2019-06-26T01:30:15.739Z,96247.88
2019-06-26T01:32:44.344Z,96249.66
2019-06-26T01:35:13.266Z,96243.27
2019-06-26T01:37:41.866Z,96252.72
2019-06-26T01:40:11.089Z,96250.23
2019-06-26T01:42:39.720Z,96244.23
2019-06-26T01:45:09.405Z,96247.77
2019-06-26T01:47:38.050Z,96244.81
2019-06-26T01:50:07.430Z,96251.31
2019-06-26T01:52:35.979Z,96249.98
2019-06-26T01:55:06.599Z,96248.18
2019-06-26T01:57:36.717Z,96247.40
2019-06-26T02:00:11.415Z,96251.34
2019-06-26T02:02:40.025Z,96248.42
2019-06-26T02:05:09.245Z,96246.38
2019-06-26T02:07:37.828Z,96251.61
2019-06-26T02:10:08.830Z,96247.45
2019-06-26T02:12:37.523Z,96249.23
2019-06-26T02:15:08.021Z,96241.55
2019-06-26T02:17:36.678Z,96248.89
2019-06-26T02:20:07.251Z,96244.65
2019-06-26T02:22:35.997Z,96241.70
2019-06-26T02:25:06.108Z,96245.58
2019-06-26T02:27:34.768Z,96243.47
2019-06-26T02:30:04.386Z,96243.08
2019-06-26T02:32:32.955Z,96245.69
2019-06-26T02:35:01.504Z,96243.55
2019-06-26T02:37:30.043Z,96243.58
2019-06-26T02:39:58.602Z,96241.08
2019-06-26T02:42:27.509Z,96240.27
2019-06-26T02:44:56.115Z,96239.42
2019-06-26T02:47:24.747Z,96240.75
2019-06-26T02:49:53.221Z,96239.42
2019-06-26T02:52:21.710Z,96233.44
2019-06-26T02:54:50.261Z,96233.41
2019-06-26T02:57:18.880Z,96233.89
2019-06-26T02:59:47.530Z,96230.41
2019-06-26T03:02:16.061Z,96231.22
2019-06-26T03:04:44.653Z,96230.77
2019-06-26T03:07:13.297Z,96232.54
2019-06-26T03:09:41.919Z,96235.09
2019-06-26T03:12:10.530Z,96229.33
2019-06-26T03:14:39.129Z,96236.61
2019-06-26T03:17:07.695Z,96237.42
2019-06-26T03:19:36.198Z,96236.61
2019-06-26T03:22:04.807Z,96233.19
2019-06-26T03:24:33.411Z,96237.93
2019-06-26T03:27:02.051Z,96230.66
2019-06-26T03:29:30.573Z,96238.50
2019-06-26T03:31:59.096Z,96235.55
2019-06-26T03:34:27.723Z,96232.54
2019-06-26T03:36:56.341Z,96232.98
2019-06-26T03:39:24.815Z,96241.11
2019-06-26T03:41:55.109Z,96238.52
2019-06-26T03:44:23.635Z,96244.96
2019-06-26T03:46:52.301Z,96242.72
2019-06-26T03:49:20.883Z,96245.58
2019-06-26T03:51:49.498Z,96242.48
2019-06-26T03:54:18.052Z,96243.33
2019-06-26T03:56:46.547Z,96240.74
2019-06-26T03:59:15.173Z,96246.25
2019-06-26T04:01:43.766Z,96247.91
2019-06-26T04:04:12.252Z,96248.75
2019-06-26T04:06:40.848Z,96249.59
2019-06-26T04:09:10.265Z,96251.67
2019-06-26T04:11:38.933Z,96250.26
2019-06-26T04:14:07.543Z,96251.43
2019-06-26T04:16:36.019Z,96251.28
2019-06-26T04:19:04.602Z,96257.18
2019-06-26T04:21:33.143Z,96253.17
2019-06-26T04:24:01.622Z,96252.57
2019-06-26T04:26:30.196Z,96251.52
2019-06-26T04:28:58.867Z,96254.75
2019-06-26T04:31:27.684Z,96247.57
2019-06-26T04:33:56.161Z,96249.34
2019-06-26T04:36:24.856Z,96244.72
2019-06-26T04:38:53.324Z,96241.33
2019-06-26T04:41:21.943Z,96246.03
2019-06-26T04:43:50.516Z,96235.66
2019-06-26T04:46:19.303Z,96235.23
2019-06-26T04:48:47.859Z,96236.94
2019-06-26T04:51:17.448Z,96238.20
2019-06-26T04:53:45.919Z,96233.89
2019-06-26T04:56:14.567Z,96233.89
2019-06-26T04:58:43.135Z,96228.11
2019-06-26T05:01:11.811Z,96227.92
2019-06-26T05:03:40.331Z,96224.30
2019-06-26T05:06:09.272Z,96221.98
2019-06-26T05:08:37.888Z,96227.45
2019-06-26T05:11:06.695Z,96220.77
2019-06-26T05:13:35.315Z,96222.67
2019-06-26T05:16:14.369Z,96219.76
2019-06-26T05:18:34.329Z,96227.72
2019-06-26T05:21:02.876Z,96219.14
2019-06-26T05:23:31.493Z,96220.20
2019-06-26T05:26:00.065Z,96220.81
2019-06-26T05:28:28.622Z,96219.25
2019-06-26T05:30:57.255Z,96219.43
2019-06-26T05:33:25.859Z,96222.70
2019-06-26T05:35:54.415Z,96225.02
2019-06-26T05:38:22.944Z,96222.94
2019-06-26T05:40:51.553Z,96226.47
2019-06-26T05:43:20.029Z,96221.02
2019-06-26T05:45:48.650Z,96225.45
2019-06-26T05:48:17.259Z,96226.09
2019-06-26T05:50:45.876Z,96217.70
2019-06-26T05:53:20.528Z,96214.94
2019-06-26T05:55:49.214Z,96212.42
2019-06-26T05:58:17.755Z,96214.00
2019-06-26T06:00:47.806Z,96214.61
2019-06-26T06:03:16.352Z,96212.59
2019-06-26T06:05:44.998Z,96211.88
2019-06-26T06:08:13.673Z,96210.75
2019-06-26T06:10:43.646Z,96210.20
2019-06-26T06:13:12.184Z,96215.27
2019-06-26T06:15:41.093Z,96216.30
2019-06-26T06:18:09.699Z,96213.33
2019-06-26T06:20:39.616Z,96213.33
2019-06-26T06:23:08.228Z,96218.92
2019-06-26T06:25:36.783Z,96210.53
2019-06-26T06:28:05.389Z,96214.72
2019-06-26T06:30:34.004Z,96211.03
2019-06-26T06:33:02.651Z,96211.27
2019-06-26T06:35:31.409Z,96211.63
2019-06-26T06:37:59.949Z,96210.61
2019-06-26T06:40:28.582Z,96213.89
2019-06-26T06:42:57.189Z,96212.69
2019-06-26T06:45:26.913Z,96211.39
2019-06-26T06:47:55.535Z,96204.35
2019-06-26T06:50:24.609Z,96209.75
2019-06-26T06:52:53.201Z,96210.53
2019-06-26T06:55:21.809Z,96203.98
2019-06-26T06:57:50.427Z,96198.39
2019-06-26T07:00:19.863Z,96202.47
2019-06-26T07:02:48.405Z,96205.98
2019-06-26T07:05:17.022Z,96202.79
2019-06-26T07:07:45.558Z,96201.22
2019-06-26T07:10:14.379Z,96203.27
2019-06-26T07:12:43.059Z,96194.65
2019-06-26T07:15:12.274Z,96195.88
2019-06-26T07:17:40.938Z,96190.96
2019-06-26T07:20:09.804Z,96194.80
2019-06-26T07:22:38.509Z,96192.86
2019-06-26T07:25:07.948Z,96185.67
2019-06-26T07:27:36.827Z,96185.84
2019-06-26T07:30:09.079Z,96184.97
2019-06-26T07:32:37.689Z,96189.84
2019-06-26T07:35:07.605Z,96188.29
2019-06-26T07:37:36.294Z,96187.80
2019-06-26T07:40:06.950Z,96183.41
2019-06-26T07:42:35.803Z,96189.22
2019-06-26T07:45:05.673Z,96189.16
2019-06-26T07:47:43.048Z,96184.16
2019-06-26T07:50:05.272Z,96193.11
2019-06-26T07:52:33.761Z,96183.52
2019-06-26T07:55:02.315Z,96181.87
2019-06-26T07:57:30.776Z,96183.56
2019-06-26T07:59:59.315Z,96179.12
2019-06-26T08:02:28.353Z,96175.53
2019-06-26T08:04:57.328Z,96176.49
2019-06-26T08:07:25.874Z,96173.52
2019-06-26T08:09:54.465Z,96176.89
2019-06-26T08:12:23.158Z,96173.16
2019-06-26T08:14:51.632Z,96172.55
2019-06-26T08:17:20.177Z,96176.95
2019-06-26T08:19:48.717Z,96167.35
2019-06-26T08:22:17.231Z,96160.72
2019-06-26T08:24:45.718Z,96165.52
2019-06-26T08:27:14.320Z,96161.25
2019-06-26T08:29:42.942Z,96162.68
2019-06-26T08:32:11.484Z,96160.98
2019-06-26T08:34:40.033Z,96158.06
2019-06-26T08:37:08.577Z,96159.14
2019-06-26T08:39:37.258Z,96155.12
2019-06-26T08:42:05.816Z,96151.15
2019-06-26T08:44:34.394Z,96152.59
2019-06-26T08:47:02.872Z,96151.71
2019-06-26T08:49:31.411Z,96150.72
2019-06-26T08:52:00.464Z,96150.09
2019-06-26T08:54:29.003Z,96150.87
2019-06-26T08:56:57.873Z,96157.02
2019-06-26T08:59:26.541Z,96152.14
2019-06-26T09:01:54.996Z,96144.90
2019-06-26T09:04:23.610Z,96144.77
2019-06-26T09:06:52.245Z,96153.92
2019-06-26T09:09:20.787Z,96144.11
2019-06-26T09:11:49.430Z,96148.45
2019-06-26T09:14:17.979Z,96140.38
2019-06-26T09:16:46.553Z,96143.52
2019-06-26T09:19:15.111Z,96142.91
2019-06-26T09:21:43.884Z,96135.72
2019-06-26T09:24:12.427Z,96140.70
2019-06-26T09:26:41.081Z,96138.81
2019-06-26T09:29:09.835Z,96138.48
2019-06-26T09:31:38.483Z,96134.59
2019-06-26T09:34:07.173Z,96135.51
2019-06-26T09:36:36.096Z,96139.48
2019-06-26T09:39:07.230Z,96128.05
2019-06-26T09:41:35.849Z,96125.48
2019-06-26T09:44:04.463Z,96128.19
2019-06-26T09:46:33.105Z,96121.34
2019-06-26T09:49:01.732Z,96118.77
2019-06-26T09:51:30.543Z,96113.66
2019-06-26T09:53:59.337Z,96113.66
2019-06-26T09:56:27.947Z,96111.44
2019-06-26T09:58:56.518Z,96114.20
2019-06-26T10:01:25.123Z,96102.42
2019-06-26T10:03:53.747Z,96097.02
2019-06-26T10:06:22.285Z,96101.47
2019-06-26T10:08:54.141Z,96101.97
2019-06-26T10:11:21.250Z,96096.30
2019-06-26T10:13:49.792Z,96095.40
2019-06-26T10:16:18.280Z,96094.11
2019-06-26T10:18:46.841Z,96087.64
2019-06-26T10:21:15.446Z,96079.24
2019-06-26T10:23:44.088Z,96084.55
2019-06-26T10:26:12.906Z,96074.56
2019-06-26T10:28:41.553Z,96078.68
2019-06-26T10:31:10.350Z,96077.36
2019-06-26T10:33:39.120Z,96081.03
2019-06-26T10:36:08.587Z,96079.77
2019-06-26T10:38:37.233Z,96077.28
2019-06-26T10:41:05.789Z,96071.72
2019-06-26T10:43:34.338Z,96071.19
2019-06-26T10:46:03.314Z,96069.20
2019-06-26T10:48:31.953Z,96069.50
2019-06-26T10:51:02.371Z,96068.80
2019-06-26T10:53:30.923Z,96064.08
2019-06-26T10:55:59.503Z,96059.53
2019-06-26T10:58:28.042Z,96054.17
2019-06-26T11:00:56.667Z,96051.52
2019-06-26T11:03:25.253Z,96048.22
2019-06-26T11:05:53.787Z,96050.05
2019-06-26T11:08:22.400Z,96051.13
2019-06-26T11:10:51.143Z,96040.13
2019-06-26T11:13:21.354Z,96042.92
2019-06-26T11:15:50.149Z,96031.03
2019-06-26T11:18:19.139Z,96036.79
2019-06-26T11:20:47.688Z,96032.30
2019-06-26T11:23:16.155Z,96037.41
2019-06-26T11:25:44.864Z,96034.22
2019-06-26T11:28:13.378Z,96031.84
2019-06-26T11:30:41.922Z,96026.66
2019-06-26T11:33:10.457Z,96024.39
2019-06-26T11:35:38.996Z,96021.23
2019-06-26T11:38:07.644Z,96022.01
2019-06-26T11:40:36.256Z,96017.31
2019-06-26T11:43:05.154Z,96026.66
2019-06-26T11:45:33.776Z,96017.01
2019-06-26T11:48:02.398Z,96012.00
2019-06-26T11:50:31.003Z,96012.45
2019-06-26T11:52:59.651Z,96015.23
2019-06-26T11:55:28.253Z,96014.35
2019-06-26T11:57:56.835Z,96014.97
2019-06-26T12:00:25.937Z,96013.89
2019-06-26T12:02:54.546Z,96008.47
2019-06-26T12:05:23.179Z,96006.41
2019-06-26T12:07:53.389Z,96006.77
2019-06-26T12:10:22.808Z,96001.09
2019-06-26T12:12:51.384Z,95996.16
2019-06-26T12:15:22.441Z,95997.13
2019-06-26T12:17:51.077Z,96000.41
2019-06-26T12:20:20.322Z,95998.77
2019-06-26T12:22:48.981Z,95994.72
2019-06-26T12:25:17.832Z,95993.25
2019-06-26T12:27:46.430Z,95990.39
2019-06-26T12:30:15.665Z,95985.60
2019-06-26T12:33:01.694Z,95986.77
2019-06-26T12:35:15.191Z,95982.59
2019-06-26T12:37:45.411Z,95975.77
2019-06-26T12:40:14.717Z,95975.58
2019-06-26T12:42:43.372Z,95973.69
2019-06-26T12:45:12.721Z,95972.48
2019-06-26T12:47:41.252Z,95970.40
2019-06-26T12:50:11.621Z,95974.10
2019-06-26T12:52:40.283Z,95971.38
2019-06-26T12:55:09.231Z,95961.25
2019-06-26T12:57:37.849Z,95967.24
2019-06-26T13:00:09.197Z,95959.34
2019-06-26T13:02:37.830Z,95953.87
2019-06-26T13:05:06.943Z,95952.44
2019-06-26T13:07:35.564Z,95950.03
2019-06-26T13:10:07.693Z,95947.63
2019-06-26T13:12:37.227Z,95945.84
2019-06-26T13:15:10.094Z,95941.09
2019-06-26T13:17:40.207Z,95927.61
2019-06-26T13:20:10.531Z,95933.70
2019-06-26T13:22:39.385Z,95930.51
2019-06-26T13:25:09.467Z,95928.39
2019-06-26T13:27:38.167Z,95925.25
2019-06-26T13:30:09.866Z,95918.73
2019-06-26T13:32:38.485Z,95921.10
2019-06-26T13:35:07.484Z,95920.27
2019-06-26T13:37:36.126Z,95921.59
2019-06-26T13:40:07.468Z,95913.17
2019-06-26T13:42:36.081Z,95908.37
2019-06-26T13:45:06.902Z,95901.55
2019-06-26T13:47:35.556Z,95906.97
2019-06-26T13:50:06.366Z,95901.46
2019-06-26T13:52:34.900Z,95896.91
2019-06-26T13:55:03.822Z,95891.56
2019-06-26T13:57:32.429Z,95887.30
2019-06-26T14:00:00.941Z,95886.38
2019-06-26T14:02:29.974Z,95886.43
2019-06-26T14:04:58.475Z,95882.09
2019-06-26T14:07:27.308Z,95879.33
2019-06-26T14:09:55.880Z,95883.02
2019-06-26T14:12:24.601Z,95878.11
2019-06-26T14:14:57.678Z,95871.72
2019-06-26T14:17:23.525Z,95869.19
2019-06-26T14:19:52.062Z,95868.98
2019-06-26T14:22:20.624Z,95865.78
2019-06-26T14:24:49.178Z,95860.68
2019-06-26T14:27:18.089Z,95856.41
2019-06-26T14:29:46.638Z,95854.50
2019-06-26T14:32:15.195Z,95845.65
2019-06-26T14:34:45.471Z,95847.30
2019-06-26T14:37:14.123Z,95844.91
2019-06-26T14:39:42.732Z,95839.75
2019-06-26T14:42:11.305Z,95839.05
2019-06-26T14:44:39.844Z,95838.45
2019-06-26T14:47:08.600Z,95837.88
2019-06-26T14:49:37.193Z,95836.33
2019-06-26T14:52:05.805Z,95838.11
2019-06-26T14:54:34.300Z,95828.19
2019-06-26T14:57:02.813Z,95829.42
2019-06-26T14:59:31.485Z,95827.11
2019-06-26T15:02:00.117Z,95818.85
2019-06-26T15:04:28.657Z,95822.94
2019-06-26T15:06:57.389Z,95818.14
2019-06-26T15:09:25.935Z,95809.23
2019-06-26T15:11:54.565Z,95809.39
2019-06-26T15:14:23.105Z,95806.38
2019-06-26T15:16:53.112Z,95803.25
2019-06-26T15:19:23.228Z,95802.79
2019-06-26T15:21:58.411Z,95801.31
2019-06-26T15:24:22.133Z,95795.94
2019-06-26T15:26:50.681Z,95798.58
2019-06-26T15:29:19.187Z,95794.77
2019-06-26T15:31:47.831Z,95792.52
2019-06-26T15:34:16.411Z,95795.07
2019-06-26T15:36:44.988Z,95792.94
2019-06-26T15:39:13.538Z,95791.80
2019-06-26T15:41:42.128Z,95787.67
2019-06-26T15:44:10.552Z,95789.28
2019-06-26T15:46:39.039Z,95781.84
2019-06-26T15:49:07.659Z,95783.88
2019-06-26T15:51:36.259Z,95782.83
2019-06-26T15:54:04.866Z,95782.61
2019-06-26T15:56:33.518Z,95780.23
2019-06-26T15:59:02.148Z,95781.90
2019-06-26T16:01:30.669Z,95775.30
2019-06-26T16:03:59.322Z,95774.47
2019-06-26T16:06:27.973Z,95771.13
2019-06-26T16:08:56.539Z,95768.11
2019-06-26T16:11:25.422Z,95763.81
2019-06-26T16:13:53.973Z,95763.11
2019-06-26T16:16:23.319Z,95760.02
2019-06-26T16:18:53.552Z,95764.70
2019-06-26T16:21:22.028Z,95759.81
2019-06-26T16:23:50.683Z,95762.84
2019-06-26T16:26:19.276Z,95764.19
2019-06-26T16:28:47.729Z,95760.25
2019-06-26T16:31:16.344Z,95758.48
2019-06-26T16:33:45.070Z,95754.05
2019-06-26T16:36:13.942Z,95755.13
2019-06-26T16:38:42.574Z,95757.52
2019-06-26T16:41:11.225Z,95746.03
2019-06-26T16:43:39.794Z,95750.73
2019-06-26T16:46:08.336Z,95754.92
2019-06-26T16:48:36.914Z,95747.87
2019-06-26T16:51:06.200Z,95748.25
2019-06-26T16:53:35.667Z,95742.03
2019-06-26T16:56:04.738Z,95741.58
2019-06-26T16:58:33.240Z,95746.84
2019-06-26T17:01:02.044Z,95739.80
2019-06-26T17:03:30.589Z,95739.34
2019-06-26T17:05:59.134Z,95732.75
2019-06-26T17:08:29.582Z,95730.83
2019-06-26T17:10:58.179Z,95734.31
2019-06-26T17:13:26.832Z,95731.19
2019-06-26T17:15:55.463Z,95728.92
2019-06-26T17:18:24.005Z,95727.03
2019-06-26T17:20:52.575Z,95726.68
2019-06-26T17:23:21.307Z,95724.03
2019-06-26T17:25:50.051Z,95720.94
2019-06-26T17:28:18.664Z,95716.86
2019-06-26T17:30:47.350Z,95722.00
2019-06-26T17:33:15.993Z,95725.00
2019-06-26T17:35:44.614Z,95720.47
2019-06-26T17:38:13.260Z,95717.37
2019-06-26T17:40:42.264Z,95722.98
2019-06-26T17:43:12.791Z,95724.73
2019-06-26T17:45:42.150Z,95729.04
2019-06-26T17:48:10.699Z,95725.80
2019-06-26T17:50:39.370Z,95728.44
2019-06-26T17:53:21.209Z,95731.04
2019-06-26T17:55:38.345Z,95723.16
2019-06-26T17:58:06.977Z,95731.88
2019-06-26T18:00:36.587Z,95727.56
2019-06-26T18:03:05.593Z,95721.93
2019-06-26T18:05:34.205Z,95721.90
2019-06-26T18:08:02.852Z,95730.13
2019-06-26T18:10:31.388Z,95723.98
2019-06-26T18:13:01.599Z,95723.25
2019-06-26T18:15:30.138Z,95728.13
2019-06-26T18:17:58.690Z,95725.94
2019-06-26T18:20:27.328Z,95727.00
2019-06-26T18:23:06.641Z,95728.41
2019-06-26T18:25:26.310Z,95729.81
2019-06-26T18:27:54.937Z,95727.83
2019-06-26T18:30:25.644Z,95730.92
2019-06-26T18:32:54.255Z,95730.11
2019-06-26T18:35:22.731Z,95727.95
2019-06-26T18:37:51.203Z,95726.48
2019-06-26T18:40:20.387Z,95721.19
2019-06-26T18:42:48.901Z,95724.62
2019-06-26T18:45:17.547Z,95726.01
2019-06-26T18:47:46.083Z,95729.53
2019-06-26T18:50:14.935Z,95728.78
2019-06-26T18:52:43.544Z,95731.92
2019-06-26T18:55:13.051Z,95735.92
2019-06-26T18:57:41.629Z,95742.55
2019-06-26T19:00:11.081Z,95739.57
2019-06-26T19:02:39.606Z,95740.02
2019-06-26T19:05:09.215Z,95745.67
2019-06-26T19:07:37.833Z,95744.67
2019-06-26T19:10:11.948Z,95752.02
2019-06-26T19:12:40.230Z,95750.29
2019-06-26T19:15:08.875Z,95758.20
2019-06-26T19:17:37.527Z,95759.91
2019-06-26T19:20:10.196Z,95761.63
2019-06-26T19:22:38.787Z,95763.72
2019-06-26T19:25:08.643Z,95765.81
2019-06-26T19:27:37.325Z,95769.16
2019-06-26T19:30:07.761Z,95764.34
2019-06-26T19:32:37.528Z,95766.05
2019-06-26T19:35:18.115Z,95762.98
2019-06-26T19:37:38.100Z,95763.37
2019-06-26T19:40:08.840Z,95769.87
2019-06-26T19:42:39.038Z,95768.67
2019-06-26T19:45:09.098Z,95764.77
2019-06-26T19:47:37.626Z,95767.69
2019-06-26T19:50:08.279Z,95764.89
2019-06-26T19:52:37.887Z,95765.92
2019-06-26T19:55:06.793Z,95768.63
2019-06-26T19:57:35.404Z,95767.14
2019-06-26T20:00:05.724Z,95766.60
2019-06-26T20:02:34.262Z,95763.02
2019-06-26T20:05:03.403Z,95763.78
2019-06-26T20:07:31.967Z,95764.75
2019-06-26T20:10:01.951Z,95760.81
2019-06-26T20:12:31.093Z,95765.02
2019-06-26T20:14:59.738Z,95760.55
2019-06-26T20:17:28.277Z,95766.15
2019-06-26T20:19:56.888Z,95767.38
2019-06-26T20:22:25.440Z,95768.78
2019-06-26T20:24:57.185Z,95771.40
2019-06-26T20:27:24.571Z,95772.59
2019-06-26T20:29:53.142Z,95770.70
2019-06-26T20:32:21.685Z,95778.90
2019-06-26T20:34:51.152Z,95778.73
2019-06-26T20:37:19.629Z,95773.78
2019-06-26T20:39:48.218Z,95770.30
2019-06-26T20:42:16.762Z,95772.63
2019-06-26T20:44:45.382Z,95775.59
2019-06-26T20:47:14.002Z,95774.39
2019-06-26T20:49:52.690Z,95776.88
2019-06-26T20:52:12.999Z,95772.95
2019-06-26T20:54:41.804Z,95768.27
2019-06-26T20:57:10.427Z,95769.36
2019-06-26T20:59:38.979Z,95771.33
2019-06-26T21:02:07.627Z,95774.20
2019-06-26T21:04:37.645Z,95768.02
2019-06-26T21:07:06.233Z,95769.92
2019-06-26T21:09:34.753Z,95766.27
2019-06-26T21:12:03.303Z,95764.10
2019-06-26T21:14:31.778Z,95759.98
2019-06-26T21:17:00.374Z,95761.17
2019-06-26T21:19:28.919Z,95759.19
2019-06-26T21:21:57.499Z,95762.89
2019-06-26T21:24:26.136Z,95761.95
2019-06-26T21:26:54.762Z,95760.80
2019-06-26T21:29:23.375Z,95755.83
2019-06-26T21:31:52.067Z,95756.92
2019-06-26T21:34:20.599Z,95754.50
2019-06-26T21:36:49.222Z,95751.59
2019-06-26T21:39:17.719Z,95750.47
2019-06-26T21:41:46.342Z,95754.17
2019-06-26T21:44:14.958Z,95751.16
2019-06-26T21:46:43.774Z,95751.34
2019-06-26T21:49:12.386Z,95748.59
2019-06-26T21:51:42.692Z,95743.70
2019-06-26T21:54:11.212Z,95743.84
2019-06-26T21:56:39.803Z,95745.80
2019-06-26T21:59:08.494Z,95745.57
2019-06-26T22:01:39.202Z,95742.45
2019-06-26T22:04:07.945Z,95740.45
2019-06-26T22:06:36.816Z,95741.47
2019-06-26T22:09:07.316Z,95742.11
2019-06-26T22:11:35.852Z,95735.00
2019-06-26T22:14:04.837Z,95735.98
2019-06-26T22:16:33.436Z,95735.31
2019-06-26T22:19:02.067Z,95735.46
2019-06-26T22:21:30.720Z,95731.36
2019-06-26T22:23:59.202Z,95731.50
2019-06-26T22:26:27.811Z,95736.95
2019-06-26T22:28:56.360Z,95730.61
2019-06-26T22:31:25.239Z,95726.88
2019-06-26T22:33:53.870Z,95733.45
2019-06-26T22:36:22.484Z,95730.45
2019-06-26T22:38:51.175Z,95726.34
2019-06-26T22:41:19.806Z,95727.25
2019-06-26T22:43:48.280Z,95723.88
2019-06-26T22:46:16.916Z,95720.38
2019-06-26T22:48:45.491Z,95720.08
2019-06-26T22:51:14.074Z,95718.91
2019-06-26T22:53:45.949Z,95713.80
2019-06-26T22:56:14.598Z,95717.14
2019-06-26T22:58:43.217Z,95707.66
2019-06-26T23:01:11.843Z,95714.23
2019-06-26T23:03:40.426Z,95706.89
2019-06-26T23:06:10.539Z,95709.20
2019-06-26T23:08:39.061Z,95708.94
2019-06-26T23:11:07.667Z,95707.73
2019-06-26T23:13:36.276Z,95699.69
2019-06-26T23:16:04.890Z,95697.69
2019-06-26T23:18:33.515Z,95699.45
2019-06-26T23:21:02.082Z,95695.25
2019-06-26T23:23:30.762Z,95688.52
2019-06-26T23:25:59.386Z,95688.88
2019-06-26T23:28:27.929Z,95681.47
2019-06-26T23:30:56.678Z,95674.55
2019-06-26T23:33:25.274Z,95678.47
2019-06-26T23:35:53.800Z,95668.69
2019-06-26T23:38:22.641Z,95667.15
2019-06-26T23:40:51.283Z,95666.38
2019-06-26T23:43:19.861Z,95667.39
2019-06-26T23:45:48.525Z,95662.88
2019-06-26T23:48:17.026Z,95666.09
2019-06-26T23:50:45.571Z,95661.81
2019-06-26T23:53:14.293Z,95653.70
2019-06-26T23:55:42.850Z,95649.87
2019-06-26T23:58:11.498Z,95653.08
